KETN/ETN METAR and TAF weather

Enter ICAO airport designator
Station Type Date Time Source
KETN METAR 2019/02/16 17:15 UTC NOAA

KETN 161715Z AUTO 00000KT 10SM SCT013 OVC100 01/M03 A2987 RMK AO2 T00061031


Station Type Date Time Source
KETN Decoded METAR 2019/02/16 17:15 UTC NOAA

Station name not available
Feb 16, 2019 - 12:15 PM EST / 2019.02.16 1715 UTC
Wind: Calm:0
Visibility: 10 mile(s):0
Sky conditions: overcast
Temperature: 33.1 F (0.6 C)
Dew Point: 26.4 F (-3.1 C)
Relative Humidity: 76%
Pressure (altimeter): 29.87 in. Hg (1011 hPa)
ob: KETN 161715Z AUTO 00000KT 10SM SCT013 OVC100 01/M03 A2987 RMK AO2 T00061031
cycle: 17

Station Type Date Time Source
KETN TAF UTC NOAA

Error!


Example: see airport list